createdAt,value
2019-04-26T00:00:47.503Z,9.81
2019-04-26T00:04:01.056Z,9.87
2019-04-26T00:07:15.027Z,9.82
2019-04-26T00:10:44.453Z,9.64
2019-04-26T00:14:19.341Z,9.56
2019-04-26T00:17:39.780Z,9.56
2019-04-26T00:20:53.756Z,9.47
2019-04-26T00:24:07.222Z,9.49
2019-04-26T00:27:21.314Z,9.56
2019-04-26T00:30:35.112Z,9.60
2019-04-26T00:33:48.568Z,9.84
2019-04-26T00:37:02.415Z,10.04
2019-04-26T00:40:16.249Z,10.21
2019-04-26T00:43:30.036Z,10.27
2019-04-26T00:46:46.206Z,10.28
2019-04-26T00:50:00.548Z,10.25
2019-04-26T00:53:15.923Z,10.25
2019-04-26T00:56:30.188Z,10.38
2019-04-26T00:59:43.961Z,10.46
2019-04-26T01:02:58.118Z,10.50
2019-04-26T01:06:14.490Z,10.44
2019-04-26T01:09:28.853Z,10.47
2019-04-26T01:12:42.537Z,10.55
2019-04-26T01:15:55.998Z,10.60
2019-04-26T01:19:11.367Z,10.62
2019-04-26T01:22:28.752Z,10.47
2019-04-26T01:25:56.908Z,10.44
2019-04-26T01:29:12.784Z,10.42
2019-04-26T01:32:28.260Z,10.44
2019-04-26T01:35:42.525Z,10.45
2019-04-26T01:39:00.868Z,10.59
2019-04-26T01:42:33.811Z,10.54
2019-04-26T01:45:55.974Z,10.59
2019-04-26T01:49:10.678Z,10.61
2019-04-26T01:52:25.567Z,10.59
2019-04-26T01:55:39.581Z,10.57
2019-04-26T01:58:53.389Z,10.56
2019-04-26T02:02:29.889Z,10.46
2019-04-26T02:05:43.523Z,10.48
2019-04-26T02:08:57.474Z,10.55
2019-04-26T02:12:11.342Z,10.60
2019-04-26T02:15:29.179Z,10.57
2019-04-26T02:18:43.023Z,10.58
2019-04-26T02:22:22.243Z,10.31
2019-04-26T02:25:35.943Z,10.28
2019-04-26T02:28:49.624Z,10.20
2019-04-26T02:32:03.940Z,10.24
2019-04-26T02:35:17.682Z,10.42
2019-04-26T02:38:32.889Z,10.53
2019-04-26T02:41:53.677Z,10.42
2019-04-26T02:45:50.629Z,10.53
2019-04-26T02:49:28.599Z,10.50
2019-04-26T02:53:11.937Z,10.47
2019-04-26T02:56:53.031Z,10.41
2019-04-26T03:00:10.526Z,10.48
2019-04-26T03:03:24.717Z,10.50
2019-04-26T03:06:42.876Z,10.34
2019-04-26T03:09:57.306Z,10.27
2019-04-26T03:13:25.427Z,10.38
2019-04-26T03:16:53.461Z,10.40
2019-04-26T03:20:11.958Z,10.55
2019-04-26T03:23:53.288Z,10.68
2019-04-26T03:27:23.267Z,10.67
2019-04-26T03:30:52.324Z,10.67
2019-04-26T03:34:22.914Z,10.56
2019-04-26T03:38:06.134Z,10.47
2019-04-26T03:41:39.007Z,10.44
2019-04-26T03:45:25.181Z,10.39
2019-04-26T03:49:05.064Z,10.44
2019-04-26T03:52:56.639Z,10.54
2019-04-26T03:56:27.343Z,10.56
2019-04-26T04:00:38.778Z,10.52
2019-04-26T04:03:57.170Z,10.51
2019-04-26T04:07:13.843Z,10.37
2019-04-26T04:10:33.880Z,10.31
2019-04-26T04:14:04.250Z,10.17
2019-04-26T04:17:49.516Z,10.16
2019-04-26T04:21:34.200Z,10.08
2019-04-26T04:24:52.932Z,9.97
2019-04-26T04:28:34.845Z,9.91
2019-04-26T04:31:53.551Z,9.82
2019-04-26T04:35:10.872Z,9.74
2019-04-26T04:38:49.522Z,9.86
2019-04-26T04:42:56.607Z,9.89
2019-04-26T04:46:30.498Z,9.85
2019-04-26T04:50:20.163Z,9.87
2019-04-26T04:53:49.746Z,9.85
2019-04-26T04:57:20.071Z,9.89
2019-04-26T05:01:24.965Z,9.95
2019-04-26T05:05:08.395Z,9.99
2019-04-26T05:08:40.147Z,9.89
2019-04-26T05:16:55.603Z,9.95
2019-04-26T05:20:22.502Z,9.87
2019-04-26T05:23:57.842Z,9.78
2019-04-26T05:27:40.294Z,9.79
2019-04-26T05:31:24.335Z,9.68
2019-04-26T05:34:50.662Z,9.61
2019-04-26T05:38:18.575Z,9.64
2019-04-26T05:41:55.669Z,9.69
2019-04-26T05:45:37.362Z,9.67
2019-04-26T05:49:59.845Z,9.64
2019-04-26T05:54:09.166Z,9.71
2019-04-26T05:57:51.025Z,9.69
2019-04-26T06:01:56.991Z,9.81
2019-04-26T06:05:23.116Z,9.87
2019-04-26T06:09:52.779Z,9.80
2019-04-26T06:13:36.447Z,9.84
2019-04-26T06:17:33.725Z,9.98
2019-04-26T06:21:10.755Z,10.14
2019-04-26T06:24:33.827Z,10.18
2019-04-26T06:27:58.308Z,10.25
2019-04-26T06:31:27.531Z,10.24
2019-04-26T06:35:20.714Z,10.38
2019-04-26T06:38:54.564Z,10.48
2019-04-26T06:42:30.075Z,10.60
2019-04-26T06:46:06.468Z,10.66
2019-04-26T06:50:05.569Z,10.65
2019-04-26T06:53:39.088Z,10.55
2019-04-26T06:58:05.168Z,10.56
2019-04-26T07:01:59.178Z,10.49
2019-04-26T07:05:19.916Z,10.39
2019-04-26T07:08:57.544Z,10.23
2019-04-26T07:12:45.601Z,10.36
2019-04-26T07:16:22.278Z,10.37
2019-04-26T07:20:42.446Z,10.18
2019-04-26T07:24:52.562Z,10.13
2019-04-26T07:28:26.433Z,10.22
2019-04-26T07:31:54.335Z,10.18
2019-04-26T07:35:16.406Z,10.07
2019-04-26T07:39:20.213Z,10.32
2019-04-26T07:43:27.906Z,10.57
2019-04-26T07:47:06.003Z,10.62
2019-04-26T07:51:04.402Z,10.61
2019-04-26T07:55:03.190Z,10.83
2019-04-26T07:59:11.226Z,10.89
2019-04-26T08:02:58.736Z,10.85
2019-04-26T08:06:35.978Z,10.80
2019-04-26T08:10:00.180Z,10.61
2019-04-26T08:13:17.759Z,10.73
2019-04-26T08:17:02.450Z,10.85
2019-04-26T08:20:33.145Z,10.89
2019-04-26T08:24:09.962Z,11.04
2019-04-26T08:27:27.155Z,11.10
2019-04-26T08:30:46.244Z,11.11
2019-04-26T08:34:07.514Z,10.86
2019-04-26T08:37:36.542Z,10.99
2019-04-26T08:40:51.465Z,11.15
2019-04-26T08:44:14.699Z,11.23
2019-04-26T08:47:55.394Z,11.10
2019-04-26T08:51:15.367Z,10.87
2019-04-26T08:54:35.375Z,10.91
2019-04-26T08:57:52.624Z,10.90
2019-04-26T09:01:28.313Z,11.09
2019-04-26T09:04:59.167Z,11.35
2019-04-26T09:08:16.621Z,11.51
2019-04-26T09:11:33.977Z,11.65
2019-04-26T09:14:53.719Z,11.82
2019-04-26T09:18:07.816Z,11.97
2019-04-26T09:21:37.186Z,11.85
2019-04-26T09:24:59.408Z,11.70
2019-04-26T09:28:17.078Z,11.58
2019-04-26T09:31:39.463Z,11.53
2019-04-26T09:34:53.037Z,11.56
2019-04-26T09:38:06.800Z,11.46
2019-04-26T09:41:20.827Z,11.61
2019-04-26T09:44:41.382Z,11.79
2019-04-26T09:48:00.683Z,12.18
2019-04-26T09:51:14.654Z,11.93
2019-04-26T09:54:28.135Z,11.77
2019-04-26T09:57:41.712Z,11.81
2019-04-26T10:00:55.309Z,11.54
2019-04-26T10:04:08.764Z,11.45
2019-04-26T10:07:22.248Z,11.51
2019-04-26T10:10:36.456Z,11.55
2019-04-26T10:14:18.727Z,11.76
2019-04-26T10:17:32.709Z,11.73
2019-04-26T10:20:46.491Z,11.54
2019-04-26T10:24:00.372Z,11.59
2019-04-26T10:27:14.604Z,11.64
2019-04-26T10:30:28.367Z,11.75
2019-04-26T10:33:47.097Z,11.77
2019-04-26T10:37:01.535Z,11.79
2019-04-26T10:40:16.839Z,12.02
2019-04-26T10:43:30.769Z,12.30
2019-04-26T10:46:55.007Z,12.38
2019-04-26T10:50:00.611Z,12.52
2019-04-26T10:53:32.007Z,12.63
2019-04-26T10:57:11.284Z,12.38
2019-04-26T11:00:38.228Z,12.74
2019-04-26T11:03:52.670Z,12.84
2019-04-26T11:07:06.624Z,12.86
2019-04-26T11:10:20.715Z,13.01
2019-04-26T11:13:34.673Z,13.51
2019-04-26T11:16:48.354Z,13.56
2019-04-26T11:20:02.305Z,13.52
2019-04-26T11:23:16.475Z,13.59
2019-04-26T11:26:31.108Z,13.31
2019-04-26T11:29:53.597Z,12.43
2019-04-26T11:33:02.073Z,12.24
2019-04-26T11:36:15.751Z,12.40
2019-04-26T11:39:29.629Z,12.51
2019-04-26T11:42:45.686Z,12.27
2019-04-26T11:46:04.406Z,11.94
2019-04-26T11:49:15.101Z,11.98
2019-04-26T11:52:32.167Z,11.96
2019-04-26T11:55:45.735Z,11.84
2019-04-26T11:58:59.306Z,11.73
2019-04-26T12:02:16.199Z,11.79
2019-04-26T12:05:46.971Z,11.96
2019-04-26T12:09:12.112Z,12.24
2019-04-26T12:16:32.868Z,13.35
2019-04-26T12:19:48.290Z,13.61
2019-04-26T12:23:02.179Z,13.46
2019-04-26T12:26:17.356Z,13.68
2019-04-26T12:29:31.490Z,13.99
2019-04-26T12:32:45.278Z,14.41
2019-04-26T12:35:59.283Z,14.47
2019-04-26T12:39:14.730Z,14.51
2019-04-26T12:42:28.584Z,14.37
2019-04-26T12:46:10.962Z,14.08
2019-04-26T12:49:25.413Z,13.92
2019-04-26T12:52:39.414Z,13.25
2019-04-26T12:55:56.197Z,13.21
2019-04-26T12:59:08.543Z,13.40
2019-04-26T13:02:22.148Z,13.60
2019-04-26T13:05:35.905Z,13.47
2019-04-26T13:08:51.389Z,13.36
2019-04-26T13:12:19.867Z,13.55
2019-04-26T13:16:16.835Z,13.38
2019-04-26T13:19:30.742Z,13.96
2019-04-26T13:22:46.218Z,14.50
2019-04-26T13:26:01.610Z,14.92
2019-04-26T13:29:15.279Z,15.07
2019-04-26T13:32:28.748Z,15.06
2019-04-26T13:35:45.440Z,14.70
2019-04-26T13:38:57.963Z,14.17
2019-04-26T13:42:13.608Z,13.72
2019-04-26T13:45:50.249Z,13.84
2019-04-26T13:49:18.138Z,14.17
2019-04-26T13:52:31.402Z,14.46
2019-04-26T13:55:45.126Z,14.86
2019-04-26T13:58:59.908Z,14.87
2019-04-26T14:02:14.059Z,15.05
2019-04-26T14:05:27.812Z,15.62
2019-04-26T14:08:41.885Z,15.56
2019-04-26T14:11:58.062Z,15.35
2019-04-26T14:15:11.489Z,15.29
2019-04-26T14:18:25.539Z,15.47
2019-04-26T14:21:39.268Z,15.28
2019-04-26T14:24:59.576Z,15.40
2019-04-26T14:28:13.300Z,15.71
2019-04-26T14:31:27.331Z,15.94
2019-04-26T14:34:42.015Z,16.14
2019-04-26T14:37:56.233Z,15.96
2019-04-26T14:41:13.320Z,15.98
2019-04-26T14:44:27.125Z,15.93
2019-04-26T14:47:47.542Z,16.02
2019-04-26T14:51:07.426Z,15.98
2019-04-26T14:54:12.946Z,15.70
2019-04-26T14:57:31.434Z,15.91
2019-04-26T15:00:44.561Z,15.98
2019-04-26T15:04:20.844Z,15.79
2019-04-26T15:07:35.079Z,15.50
2019-04-26T15:10:57.739Z,15.41
2019-04-26T15:14:05.711Z,15.26
2019-04-26T15:17:20.153Z,15.62
2019-04-26T15:20:34.782Z,15.76
2019-04-26T15:23:48.527Z,16.28
2019-04-26T15:27:03.346Z,16.44
2019-04-26T15:30:17.092Z,16.32
2019-04-26T15:33:32.372Z,16.52
2019-04-26T15:36:47.974Z,16.74
2019-04-26T15:40:16.711Z,16.77
2019-04-26T15:43:50.217Z,16.76
2019-04-26T15:47:13.091Z,16.51
2019-04-26T15:50:47.796Z,16.59
2019-04-26T15:53:56.825Z,16.67
2019-04-26T15:57:12.297Z,16.72
2019-04-26T16:00:28.370Z,16.57
2019-04-26T16:03:44.578Z,16.58
2019-04-26T16:06:58.264Z,16.85
2019-04-26T16:10:12.212Z,16.83
2019-04-26T16:13:26.486Z,17.14
2019-04-26T16:16:40.224Z,17.25
2019-04-26T16:19:56.056Z,17.62
2019-04-26T16:23:09.551Z,17.71
2019-04-26T16:26:23.143Z,17.61
2019-04-26T16:29:50.878Z,17.69
2019-04-26T16:33:28.414Z,17.32
2019-04-26T16:39:57.941Z,17.38
2019-04-26T16:43:12.551Z,16.82
2019-04-26T16:46:26.912Z,16.60
2019-04-26T16:49:41.946Z,16.71
2019-04-26T16:52:56.291Z,16.23
2019-04-26T16:56:09.820Z,16.33
2019-04-26T16:59:26.596Z,16.17
2019-04-26T17:02:39.411Z,15.92
2019-04-26T17:06:04.753Z,15.56
2019-04-26T17:09:08.771Z,15.55
2019-04-26T17:09:51.459Z,17.52
2019-04-26T17:12:24.634Z,15.55
2019-04-26T17:15:38.149Z,15.40
2019-04-26T17:18:55.616Z,15.28
2019-04-26T17:22:16.077Z,15.25
2019-04-26T17:25:55.221Z,14.96
2019-04-26T17:29:08.120Z,14.87
2019-04-26T17:32:23.267Z,14.92
2019-04-26T17:35:41.038Z,14.80
2019-04-26T17:38:52.995Z,14.68
2019-04-26T17:42:06.753Z,14.57
2019-04-26T17:45:21.238Z,14.36
2019-04-26T17:48:34.979Z,14.31
2019-04-26T17:51:51.696Z,14.20
2019-04-26T17:55:07.847Z,14.14
2019-04-26T17:58:27.752Z,14.16
2019-04-26T18:01:45.574Z,14.12
2019-04-26T18:05:00.255Z,14.04
2019-04-26T18:08:31.596Z,13.94
2019-04-26T18:11:24.915Z,13.76
2019-04-26T18:14:38.631Z,13.84
2019-04-26T18:18:30.333Z,13.75
2019-04-26T18:22:00.158Z,13.61
2019-04-26T18:25:14.678Z,13.35
2019-04-26T18:28:28.403Z,13.03
2019-04-26T18:31:43.846Z,12.84
2019-04-26T18:34:57.393Z,12.72
2019-04-26T18:38:12.609Z,12.54
2019-04-26T18:41:28.667Z,12.36
2019-04-26T18:44:47.373Z,12.15
2019-04-26T18:48:01.401Z,12.05
2019-04-26T18:51:13.834Z,11.87
2019-04-26T18:54:36.152Z,11.78
2019-04-26T18:57:55.227Z,11.66
2019-04-26T19:01:06.419Z,11.62
2019-04-26T19:04:19.890Z,11.46
2019-04-26T19:07:33.469Z,11.32
2019-04-26T19:10:58.478Z,11.11
2019-04-26T19:14:21.920Z,11.00
2019-04-26T19:18:04.278Z,10.93
2019-04-26T19:21:32.375Z,10.85
2019-04-26T19:24:49.424Z,10.80
2019-04-26T19:28:04.426Z,10.70
2019-04-26T19:31:19.232Z,10.68
2019-04-26T19:34:32.899Z,10.56
2019-04-26T19:37:46.376Z,10.51
2019-04-26T19:40:59.845Z,10.46
2019-04-26T19:44:14.689Z,10.41
2019-04-26T19:47:39.474Z,10.39
2019-04-26T19:51:15.142Z,10.39
2019-04-26T19:54:41.878Z,10.31
2019-04-26T19:58:01.829Z,10.20
2019-04-26T20:01:16.625Z,10.17
2019-04-26T20:04:34.008Z,10.11
2019-04-26T20:07:46.496Z,10.03
2019-04-26T20:11:01.355Z,9.95
2019-04-26T20:14:15.624Z,9.92
2019-04-26T20:17:29.482Z,9.86
2019-04-26T20:20:43.046Z,9.90
2019-04-26T20:23:56.509Z,9.93
2019-04-26T20:27:15.656Z,9.99
2019-04-26T20:30:44.091Z,10.05
2019-04-26T20:33:57.620Z,10.18
2019-04-26T20:37:11.425Z,10.22
2019-04-26T20:40:25.754Z,10.27
2019-04-26T20:43:44.354Z,10.27
2019-04-26T20:46:54.770Z,10.30
2019-04-26T20:50:08.424Z,10.26
2019-04-26T20:53:21.910Z,10.33
2019-04-26T20:56:35.495Z,10.36
2019-04-26T20:59:52.080Z,10.35
2019-04-26T21:03:06.205Z,10.31
2019-04-26T21:06:19.851Z,10.40
2019-04-26T21:09:36.443Z,10.44
2019-04-26T21:16:38.828Z,10.16
2019-04-26T21:19:54.882Z,9.93
2019-04-26T21:23:08.333Z,9.83
2019-04-26T21:26:46.558Z,9.80
2019-04-26T21:30:18.505Z,9.82
2019-04-26T21:33:39.256Z,9.95
2019-04-26T21:37:11.325Z,10.03
2019-04-26T21:40:34.331Z,10.16
2019-04-26T21:43:47.808Z,10.22
2019-04-26T21:47:03.255Z,10.21
2019-04-26T21:50:16.887Z,10.24
2019-04-26T21:53:30.475Z,10.21
2019-04-26T21:56:48.755Z,10.11
2019-04-26T21:59:59.557Z,10.08
2019-04-26T22:03:16.014Z,9.99
2019-04-26T22:06:28.935Z,9.96
2019-04-26T22:10:01.163Z,9.98
2019-04-26T22:13:30.269Z,9.94
2019-04-26T22:16:49.777Z,9.98
2019-04-26T22:20:26.106Z,9.96
2019-04-26T22:23:47.605Z,10.00
2019-04-26T22:27:03.849Z,9.97
2019-04-26T22:30:28.278Z,10.03
2019-04-26T22:33:39.179Z,10.08
2019-04-26T22:36:53.688Z,10.06
2019-04-26T22:40:10.540Z,10.03
2019-04-26T22:43:31.868Z,10.01
2019-04-26T22:47:14.110Z,9.98
2019-04-26T22:50:27.829Z,9.96
2019-04-26T22:53:42.980Z,9.94
2019-04-26T22:56:57.083Z,9.93
2019-04-26T23:00:10.871Z,9.95
2019-04-26T23:03:24.672Z,9.97
2019-04-26T23:06:38.143Z,10.01
2019-04-26T23:09:55.131Z,9.98
2019-04-26T23:13:13.888Z,10.02
2019-04-26T23:16:40.486Z,10.05
2019-04-26T23:19:57.536Z,10.05
2019-04-26T23:23:11.275Z,10.02
2019-04-26T23:26:24.832Z,10.02
2019-04-26T23:29:38.347Z,9.92
2019-04-26T23:32:52.201Z,9.87
2019-04-26T23:36:06.695Z,9.88
2019-04-26T23:39:20.422Z,9.94
2019-04-26T23:42:33.987Z,9.93
2019-04-26T23:45:48.444Z,9.86
2019-04-26T23:49:03.091Z,9.83
2019-04-26T23:52:18.599Z,9.84
2019-04-26T23:55:33.707Z,9.91
2019-04-26T23:58:47.723Z,9.84
